createdAt,value
2018-01-24T00:01:59.195Z,7.50
2018-01-24T00:04:28.849Z,7.40
2018-01-24T00:06:58.423Z,7.40
2018-01-24T00:09:28.049Z,7.40
2018-01-24T00:11:58.593Z,7.40
2018-01-24T00:14:28.057Z,7.40
2018-01-24T00:16:58.186Z,7.40
2018-01-24T00:19:27.963Z,7.40
2018-01-24T00:21:57.501Z,7.40
2018-01-24T00:24:26.899Z,7.50
2018-01-24T00:26:54.467Z,7.50
2018-01-24T00:29:22.045Z,7.50
2018-01-24T00:31:50.469Z,7.50
2018-01-24T00:34:20.121Z,7.50
2018-01-24T00:36:47.726Z,7.50
2018-01-24T00:39:15.301Z,7.40
2018-01-24T00:41:42.909Z,7.50
2018-01-24T00:44:10.526Z,7.50
2018-01-24T00:46:38.130Z,7.50
2018-01-24T00:49:06.462Z,7.50
2018-01-24T00:51:34.049Z,7.50
2018-01-24T00:54:01.663Z,7.50
2018-01-24T00:56:29.218Z,7.50
2018-01-24T00:58:56.805Z,7.50
2018-01-24T01:01:24.402Z,7.60
2018-01-24T01:03:51.976Z,7.60
2018-01-24T01:06:20.338Z,7.50
2018-01-24T01:08:47.905Z,7.50
2018-01-24T01:11:15.526Z,7.60
2018-01-24T01:13:43.154Z,7.60
2018-01-24T01:16:10.772Z,7.60
2018-01-24T01:18:38.372Z,7.60
2018-01-24T01:21:06.752Z,7.70
2018-01-24T01:23:34.334Z,7.70
2018-01-24T01:26:01.890Z,7.70
2018-01-24T01:28:29.497Z,7.70
2018-01-24T01:30:57.056Z,7.80
2018-01-24T01:33:24.670Z,7.80
2018-01-24T01:35:52.273Z,7.80
2018-01-24T01:38:19.869Z,7.80
2018-01-24T01:40:48.241Z,8.00
2018-01-24T01:43:15.790Z,8.00
2018-01-24T01:45:43.407Z,8.10
2018-01-24T01:48:10.993Z,8.20
2018-01-24T01:50:38.571Z,8.30
2018-01-24T01:53:06.157Z,8.30
2018-01-24T01:55:33.777Z,8.30
2018-01-24T01:58:01.333Z,8.20
2018-01-24T02:00:28.914Z,8.30
2018-01-24T02:02:56.545Z,8.40
2018-01-24T02:05:24.100Z,8.30
2018-01-24T02:07:51.711Z,8.30
2018-01-24T02:10:19.285Z,8.30
2018-01-24T02:12:47.637Z,8.30
2018-01-24T02:15:15.225Z,8.30
2018-01-24T02:17:43.554Z,8.30
2018-01-24T02:20:11.191Z,8.30
2018-01-24T02:22:38.758Z,8.30
2018-01-24T02:25:06.363Z,8.40
2018-01-24T02:27:33.953Z,8.40
2018-01-24T02:30:02.298Z,8.30
2018-01-24T02:32:29.898Z,8.30
2018-01-24T02:34:58.231Z,8.30
2018-01-24T02:37:25.844Z,8.30
2018-01-24T02:39:53.409Z,8.30
2018-01-24T02:42:21.003Z,8.20
2018-01-24T02:44:48.570Z,8.20
2018-01-24T02:47:16.177Z,8.20
2018-01-24T02:49:43.745Z,8.10
2018-01-24T02:52:11.339Z,8.10
2018-01-24T02:54:38.893Z,8.10
2018-01-24T02:57:06.506Z,8.10
2018-01-24T02:59:34.842Z,8.10
2018-01-24T03:02:02.414Z,8.10
2018-01-24T03:04:30.023Z,8.10
2018-01-24T03:06:58.354Z,8.20
2018-01-24T03:09:25.979Z,8.20
2018-01-24T03:11:53.559Z,8.20
2018-01-24T03:14:21.134Z,8.20
2018-01-24T03:16:48.740Z,8.20
2018-01-24T03:19:17.102Z,8.20
2018-01-24T03:21:44.705Z,8.20
2018-01-24T03:24:12.274Z,8.30
2018-01-24T03:26:39.886Z,8.30
2018-01-24T03:29:07.573Z,8.30
2018-01-24T03:31:35.157Z,8.30
2018-01-24T03:34:02.723Z,8.30
2018-01-24T03:36:30.305Z,8.30
2018-01-24T03:38:57.854Z,8.40
2018-01-24T03:41:25.436Z,8.30
2018-01-24T03:43:53.029Z,8.30
2018-01-24T03:46:20.608Z,8.30
2018-01-24T03:48:48.236Z,8.40
2018-01-24T03:51:15.788Z,8.40
2018-01-24T03:53:43.359Z,8.40
2018-01-24T03:56:11.740Z,8.50
2018-01-24T03:58:40.123Z,8.50
2018-01-24T04:01:08.505Z,8.50
2018-01-24T04:03:36.837Z,8.60
2018-01-24T04:06:04.442Z,8.50
2018-01-24T04:08:32.789Z,8.50
2018-01-24T04:11:00.436Z,8.50
2018-01-24T04:13:28.014Z,8.60
2018-01-24T04:15:55.628Z,8.60
2018-01-24T04:18:23.218Z,8.60
2018-01-24T04:20:50.808Z,8.70
2018-01-24T04:23:18.382Z,8.60
2018-01-24T04:25:46.041Z,8.70
2018-01-24T04:28:14.433Z,8.70
2018-01-24T04:30:42.002Z,8.70
2018-01-24T04:33:10.339Z,8.80
2018-01-24T04:35:37.938Z,8.80
2018-01-24T04:38:06.267Z,8.80
2018-01-24T04:40:33.851Z,8.80
2018-01-24T04:43:01.403Z,8.90
2018-01-24T04:45:28.997Z,8.90
2018-01-24T04:47:57.322Z,8.80
2018-01-24T04:50:24.923Z,8.80
2018-01-24T04:52:53.260Z,8.80
2018-01-24T04:55:20.872Z,8.80
2018-01-24T04:57:49.279Z,8.90
2018-01-24T05:00:16.855Z,8.80
2018-01-24T05:02:44.453Z,8.80
2018-01-24T05:05:12.013Z,8.90
2018-01-24T05:07:39.609Z,8.90
2018-01-24T05:10:07.968Z,9.00
2018-01-24T05:12:36.310Z,9.00
2018-01-24T05:15:03.909Z,9.00
2018-01-24T05:17:32.248Z,8.90
2018-01-24T05:19:59.847Z,9.00
2018-01-24T05:22:28.209Z,9.00
2018-01-24T05:24:55.820Z,9.00
2018-01-24T05:27:23.413Z,9.00
2018-01-24T05:29:51.074Z,9.00
2018-01-24T05:32:18.653Z,9.00
2018-01-24T05:34:46.299Z,9.00
2018-01-24T05:37:13.865Z,9.00
2018-01-24T05:39:41.431Z,9.00
2018-01-24T05:42:09.037Z,9.00
2018-01-24T05:44:36.593Z,9.00
2018-01-24T05:47:04.954Z,9.00
2018-01-24T05:49:32.515Z,9.00
2018-01-24T05:52:00.944Z,8.90
2018-01-24T05:54:28.506Z,8.90
2018-01-24T05:56:56.082Z,8.90
2018-01-24T05:59:23.677Z,8.90
2018-01-24T06:01:52.077Z,8.90
2018-01-24T06:04:19.661Z,8.90
2018-01-24T06:06:47.248Z,8.90
2018-01-24T06:09:14.882Z,8.90
2018-01-24T06:11:42.503Z,8.90
2018-01-24T06:14:10.859Z,8.80
2018-01-24T06:16:39.249Z,8.90
2018-01-24T06:19:06.875Z,8.90
2018-01-24T06:21:34.435Z,8.90
2018-01-24T06:24:02.036Z,8.80
2018-01-24T06:26:30.603Z,8.80
2018-01-24T06:28:58.158Z,8.80
2018-01-24T06:31:25.761Z,8.80
2018-01-24T06:33:53.320Z,8.80
2018-01-24T06:36:21.675Z,8.70
2018-01-24T06:38:49.262Z,8.70
2018-01-24T06:41:17.640Z,8.70
2018-01-24T06:43:46.047Z,8.60
2018-01-24T06:46:13.606Z,8.60
2018-01-24T06:48:41.203Z,8.60
2018-01-24T06:51:08.762Z,8.60
2018-01-24T06:53:36.374Z,8.60
2018-01-24T06:56:03.928Z,8.50
2018-01-24T06:58:31.538Z,8.50
2018-01-24T07:00:59.143Z,8.40
2018-01-24T07:03:27.508Z,8.40
2018-01-24T07:05:55.119Z,8.40
2018-01-24T07:08:22.715Z,8.30
2018-01-24T07:10:50.313Z,8.30
2018-01-24T07:13:30.440Z,8.30
2018-01-24T07:15:59.133Z,8.30
2018-01-24T07:18:26.771Z,8.20
2018-01-24T07:20:54.417Z,8.30
2018-01-24T07:23:22.250Z,8.20
2018-01-24T07:25:50.010Z,8.20
2018-01-24T07:28:18.080Z,8.10
2018-01-24T07:30:45.813Z,8.10
2018-01-24T07:33:13.576Z,8.10
2018-01-24T07:35:41.521Z,8.20
2018-01-24T07:38:09.253Z,8.20
2018-01-24T07:40:37.142Z,8.20
2018-01-24T07:43:05.602Z,8.30
2018-01-24T07:45:34.423Z,8.30
2018-01-24T07:48:02.124Z,8.30
2018-01-24T07:50:29.756Z,8.30
2018-01-24T07:52:58.932Z,8.30
2018-01-24T07:55:27.161Z,8.40
2018-01-24T07:57:56.314Z,8.40
2018-01-24T08:00:25.411Z,8.40
2018-01-24T08:03:00.770Z,8.40
2018-01-24T08:05:37.355Z,8.60
2018-01-24T08:08:28.172Z,8.60
2018-01-24T08:10:56.124Z,8.60
2018-01-24T08:13:24.178Z,8.60
2018-01-24T08:15:53.624Z,8.70
2018-01-24T08:18:21.741Z,8.80
2018-01-24T08:20:49.471Z,8.90
2018-01-24T08:23:17.272Z,8.90
2018-01-24T08:25:44.858Z,8.90
2018-01-24T08:28:12.426Z,9.00
2018-01-24T08:30:41.633Z,8.90
2018-01-24T08:33:09.425Z,9.00
2018-01-24T08:35:37.803Z,9.20
2018-01-24T08:38:05.501Z,9.20
2018-01-24T08:40:34.610Z,9.20
2018-01-24T08:43:02.319Z,9.20
2018-01-24T08:45:30.430Z,9.30
2018-01-24T08:47:59.052Z,9.30
2018-01-24T08:50:26.926Z,9.40
2018-01-24T08:52:54.996Z,9.40
2018-01-24T08:55:23.369Z,9.40
2018-01-24T08:57:51.759Z,9.40
2018-01-24T09:00:37.002Z,9.40
2018-01-24T09:03:22.276Z,9.40
2018-01-24T09:06:07.652Z,9.40
2018-01-24T09:08:52.973Z,9.50
2018-01-24T09:11:38.976Z,9.80
2018-01-24T09:14:25.023Z,9.80
2018-01-24T09:17:10.167Z,9.80
2018-01-24T09:19:55.442Z,10.20
2018-01-24T09:22:45.623Z,11.10
2018-01-24T09:25:14.806Z,11.60
2018-01-24T09:27:44.039Z,11.90
2018-01-24T09:30:12.204Z,11.90
2018-01-24T09:32:39.887Z,11.60
2018-01-24T09:35:07.596Z,11.30
2018-01-24T09:37:35.222Z,11.10
2018-01-24T09:40:02.929Z,11.00
2018-01-24T09:42:30.567Z,10.90
2018-01-24T09:44:58.973Z,10.60
2018-01-24T09:47:26.540Z,10.50
2018-01-24T09:49:54.940Z,10.50
2018-01-24T09:52:22.577Z,10.50
2018-01-24T09:54:50.256Z,10.60
2018-01-24T09:57:18.249Z,10.60
2018-01-24T09:59:52.741Z,10.70
2018-01-24T10:02:21.897Z,10.80
2018-01-24T10:04:49.460Z,10.80
2018-01-24T10:07:17.120Z,10.90
2018-01-24T10:09:44.917Z,10.90
2018-01-24T10:12:13.061Z,11.00
2018-01-24T10:14:41.369Z,11.00
2018-01-24T10:17:09.395Z,11.00
2018-01-24T10:19:37.145Z,11.00
2018-01-24T10:22:05.804Z,11.20
2018-01-24T10:24:33.529Z,11.30
2018-01-24T10:27:01.154Z,11.20
2018-01-24T10:29:28.754Z,11.30
2018-01-24T10:31:56.369Z,11.40
2018-01-24T10:34:24.142Z,11.60
2018-01-24T10:36:51.832Z,11.50
2018-01-24T10:39:19.679Z,11.40
2018-01-24T10:41:47.401Z,11.60
2018-01-24T10:44:16.199Z,12.00
2018-01-24T10:46:43.990Z,12.00
2018-01-24T10:49:11.675Z,12.30
2018-01-24T10:51:39.551Z,12.90
2018-01-24T10:54:07.858Z,13.00
2018-01-24T10:56:35.602Z,13.10
2018-01-24T10:59:04.064Z,13.50
2018-01-24T11:01:31.710Z,13.70
2018-01-24T11:03:59.313Z,13.70
2018-01-24T11:06:26.896Z,13.70
2018-01-24T11:08:54.559Z,13.60
2018-01-24T11:11:22.957Z,13.70
2018-01-24T11:13:50.594Z,13.70
2018-01-24T11:16:18.221Z,13.80
2018-01-24T11:18:46.687Z,13.80
2018-01-24T11:21:14.341Z,13.90
2018-01-24T11:23:41.938Z,14.00
2018-01-24T11:26:10.340Z,14.40
2018-01-24T11:28:37.968Z,14.30
2018-01-24T11:31:05.593Z,14.60
2018-01-24T11:33:33.315Z,15.00
2018-01-24T11:36:01.032Z,15.20
2018-01-24T11:38:28.844Z,15.00
2018-01-24T11:40:57.261Z,14.90
2018-01-24T11:43:25.666Z,15.20
2018-01-24T11:45:53.248Z,15.20
2018-01-24T11:48:21.005Z,15.60
2018-01-24T11:50:48.578Z,16.30
2018-01-24T11:53:16.285Z,16.50
2018-01-24T11:56:15.021Z,17.50
2018-01-24T11:58:44.122Z,17.40
2018-01-24T12:01:12.021Z,18.40
2018-01-24T12:03:39.640Z,19.10
2018-01-24T12:06:07.292Z,19.10
2018-01-24T12:08:38.813Z,19.10
2018-01-24T12:11:07.188Z,18.50
2018-01-24T12:13:35.586Z,18.10
2018-01-24T12:16:08.709Z,18.10
2018-01-24T12:18:41.054Z,19.40
2018-01-24T12:21:13.192Z,19.30
2018-01-24T12:23:41.804Z,20.00
2018-01-24T12:26:10.550Z,21.60
2018-01-24T12:28:47.594Z,21.50
2018-01-24T12:31:16.432Z,21.40
2018-01-24T12:33:45.369Z,21.50
2018-01-24T12:36:13.030Z,21.50
2018-01-24T12:38:48.802Z,21.40
2018-01-24T12:41:18.997Z,21.50
2018-01-24T12:43:46.668Z,21.40
2018-01-24T12:46:14.320Z,20.60
2018-01-24T12:48:41.982Z,19.80
2018-01-24T12:51:09.559Z,19.60
2018-01-24T12:53:37.173Z,19.40
2018-01-24T12:56:04.784Z,19.00
2018-01-24T12:58:32.430Z,19.30
2018-01-24T13:01:00.036Z,19.30
2018-01-24T13:03:27.632Z,18.90
2018-01-24T13:05:55.270Z,18.50
2018-01-24T13:08:22.871Z,18.80
2018-01-24T13:10:50.467Z,18.80
2018-01-24T13:13:18.118Z,18.60
2018-01-24T13:15:46.604Z,18.40
2018-01-24T13:18:14.515Z,18.30
2018-01-24T13:20:42.962Z,18.40
2018-01-24T13:23:10.590Z,17.90
2018-01-24T13:25:39.086Z,17.80
2018-01-24T13:28:06.727Z,17.70
2018-01-24T13:30:35.050Z,17.90
2018-01-24T13:33:02.610Z,17.90
2018-01-24T13:35:30.354Z,18.20
2018-01-24T13:37:58.323Z,18.10
2018-01-24T13:40:26.168Z,17.80
2018-01-24T13:42:53.806Z,17.80
2018-01-24T13:45:21.451Z,18.20
2018-01-24T13:47:49.098Z,18.40
2018-01-24T13:50:16.701Z,18.20
2018-01-24T13:52:44.415Z,17.80
2018-01-24T13:55:12.470Z,17.60
2018-01-24T13:57:40.073Z,17.30
2018-01-24T14:00:07.731Z,16.90
2018-01-24T14:02:35.344Z,16.60
2018-01-24T14:05:02.928Z,16.40
2018-01-24T14:07:30.569Z,16.30
2018-01-24T14:09:58.139Z,16.00
2018-01-24T14:12:25.817Z,15.80
2018-01-24T14:14:53.389Z,15.90
2018-01-24T14:17:21.069Z,16.30
2018-01-24T14:19:48.678Z,16.40
2018-01-24T14:22:16.292Z,16.20
2018-01-24T14:24:43.904Z,16.00
2018-01-24T14:27:11.490Z,15.80
2018-01-24T14:29:39.145Z,15.60
2018-01-24T14:32:07.627Z,15.20
2018-01-24T14:34:35.317Z,15.20
2018-01-24T14:37:03.055Z,15.30
2018-01-24T14:39:30.670Z,15.20
2018-01-24T14:41:58.253Z,15.00
2018-01-24T14:44:25.965Z,14.90
2018-01-24T14:46:53.555Z,14.80
2018-01-24T14:49:21.184Z,14.70
2018-01-24T14:51:48.914Z,14.60
2018-01-24T14:54:16.522Z,14.40
2018-01-24T14:56:44.159Z,14.40
2018-01-24T14:59:11.791Z,14.40
2018-01-24T15:01:39.401Z,14.40
2018-01-24T15:04:07.053Z,14.30
2018-01-24T15:06:34.647Z,14.30
2018-01-24T15:09:02.246Z,14.30
2018-01-24T15:11:29.856Z,14.20
2018-01-24T15:13:57.484Z,14.10
2018-01-24T15:16:25.151Z,14.00
2018-01-24T15:18:52.730Z,13.90
2018-01-24T15:21:20.357Z,13.70
2018-01-24T15:23:47.933Z,13.70
2018-01-24T15:26:15.965Z,13.70
2018-01-24T15:28:44.393Z,13.50
2018-01-24T15:31:11.983Z,13.50
2018-01-24T15:33:39.859Z,13.40
2018-01-24T15:36:07.490Z,13.30
2018-01-24T15:38:35.899Z,13.20
2018-01-24T15:41:03.562Z,13.10
2018-01-24T15:43:31.184Z,13.10
2018-01-24T15:45:58.810Z,13.10
2018-01-24T15:48:26.445Z,13.00
2018-01-24T15:50:54.070Z,13.00
2018-01-24T15:53:21.682Z,12.90
2018-01-24T15:55:50.060Z,12.80
2018-01-24T15:58:17.724Z,12.80
2018-01-24T16:00:46.078Z,12.60
2018-01-24T16:03:13.720Z,12.50
2018-01-24T16:05:41.747Z,12.50
2018-01-24T16:08:09.569Z,12.50
2018-01-24T16:10:38.435Z,12.40
2018-01-24T16:13:05.997Z,12.40
2018-01-24T16:15:33.702Z,12.40
2018-01-24T16:18:01.306Z,12.40
2018-01-24T16:20:28.924Z,12.30
2018-01-24T16:22:57.070Z,12.30
2018-01-24T16:25:24.640Z,12.30
2018-01-24T16:27:52.254Z,12.30
2018-01-24T16:30:20.846Z,12.30
2018-01-24T16:32:49.376Z,12.30
2018-01-24T16:35:17.029Z,12.30
2018-01-24T16:37:44.649Z,12.30
2018-01-24T16:40:12.373Z,12.20
2018-01-24T16:42:39.957Z,12.40
2018-01-24T16:45:08.358Z,12.30
2018-01-24T16:47:36.059Z,12.30
2018-01-24T16:50:03.701Z,12.30
2018-01-24T16:52:32.030Z,12.30
2018-01-24T16:54:59.650Z,12.30
2018-01-24T16:57:27.260Z,12.30
2018-01-24T16:59:54.889Z,12.20
2018-01-24T17:02:27.420Z,12.20
2018-01-24T17:04:55.041Z,12.10
2018-01-24T17:07:22.649Z,12.00
2018-01-24T17:09:50.256Z,11.90
2018-01-24T17:12:20.960Z,11.80
2018-01-24T17:14:51.332Z,11.80
2018-01-24T17:17:21.766Z,12.00
2018-01-24T17:19:53.679Z,11.90
2018-01-24T17:22:23.336Z,11.90
2018-01-24T17:24:53.383Z,11.90
2018-01-24T17:27:22.929Z,11.90
2018-01-24T17:29:53.717Z,11.80
2018-01-24T17:32:28.099Z,11.90
2018-01-24T17:34:57.732Z,11.90
2018-01-24T17:37:29.362Z,12.10
2018-01-24T17:40:01.406Z,12.10
2018-01-24T17:42:31.796Z,12.00
2018-01-24T17:45:02.236Z,12.00
2018-01-24T17:47:32.786Z,12.00
2018-01-24T17:50:03.480Z,12.00
2018-01-24T17:52:34.058Z,12.00
2018-01-24T17:55:04.147Z,12.10
2018-01-24T17:57:34.135Z,12.20
2018-01-24T18:00:04.765Z,12.10
2018-01-24T18:02:35.008Z,12.20
2018-01-24T18:05:04.821Z,12.20
2018-01-24T18:07:34.427Z,12.20
2018-01-24T18:10:04.982Z,12.30
2018-01-24T18:12:34.677Z,12.20
2018-01-24T18:15:05.286Z,12.20
2018-01-24T18:17:36.910Z,12.20
2018-01-24T18:20:06.013Z,12.20
2018-01-24T18:22:35.896Z,12.20
2018-01-24T18:25:06.434Z,12.10
2018-01-24T18:27:36.271Z,12.10
2018-01-24T18:30:05.962Z,12.20
2018-01-24T18:32:35.346Z,12.20
2018-01-24T18:35:05.651Z,12.20
2018-01-24T18:37:35.492Z,12.20
2018-01-24T18:40:04.869Z,12.20
2018-01-24T18:42:33.496Z,12.20
2018-01-24T18:45:01.914Z,12.20
2018-01-24T18:47:31.518Z,12.30
2018-01-24T18:50:01.323Z,12.30
2018-01-24T18:52:30.278Z,12.40
2018-01-24T18:55:00.089Z,12.30
2018-01-24T18:57:30.595Z,12.20
2018-01-24T19:00:03.915Z,12.20
2018-01-24T19:02:32.990Z,12.20
2018-01-24T19:05:02.805Z,12.10
2018-01-24T19:07:33.232Z,12.00
2018-01-24T19:10:02.859Z,12.00
2018-01-24T19:12:32.619Z,12.00
2018-01-24T19:15:02.239Z,11.90
2018-01-24T19:17:32.767Z,11.80
2018-01-24T19:20:03.102Z,11.80
2018-01-24T19:22:32.972Z,11.80
2018-01-24T19:25:02.650Z,11.70
2018-01-24T19:27:32.525Z,11.70
2018-01-24T19:30:02.407Z,11.70
2018-01-24T19:32:31.957Z,11.70
2018-01-24T19:35:02.497Z,11.60
2018-01-24T19:37:32.189Z,11.60
2018-01-24T19:40:02.375Z,11.70
2018-01-24T19:42:31.966Z,11.70
2018-01-24T19:45:01.641Z,11.80
2018-01-24T19:47:32.358Z,11.70
2018-01-24T19:50:01.969Z,11.80
2018-01-24T19:52:32.710Z,11.70
2018-01-24T19:55:02.443Z,11.70
2018-01-24T19:57:32.239Z,11.70
2018-01-24T20:00:02.518Z,11.50
2018-01-24T20:02:32.373Z,11.50
2018-01-24T20:05:02.598Z,11.50
2018-01-24T20:07:33.114Z,11.50
2018-01-24T20:10:03.271Z,11.50
2018-01-24T20:12:33.070Z,11.50
2018-01-24T20:15:02.444Z,11.50
2018-01-24T20:17:32.275Z,11.50
2018-01-24T20:20:02.577Z,11.40
2018-01-24T20:22:32.402Z,11.40
2018-01-24T20:25:02.767Z,11.40
2018-01-24T20:27:32.797Z,11.40
2018-01-24T20:30:02.433Z,11.40
2018-01-24T20:32:33.050Z,11.30
2018-01-24T20:35:02.283Z,11.30
2018-01-24T20:37:32.069Z,11.30
2018-01-24T20:40:01.669Z,11.30
2018-01-24T20:42:31.242Z,11.30
2018-01-24T20:45:01.736Z,11.30
2018-01-24T20:47:31.092Z,11.30
2018-01-24T20:50:00.588Z,11.30
2018-01-24T20:52:29.992Z,11.30
2018-01-24T20:54:59.342Z,11.30
2018-01-24T20:57:28.987Z,11.30
2018-01-24T20:59:59.221Z,11.20
2018-01-24T21:02:28.953Z,11.20
2018-01-24T21:04:58.618Z,11.20
2018-01-24T21:07:28.740Z,11.20
2018-01-24T21:09:59.195Z,11.20
2018-01-24T21:12:28.306Z,11.20
2018-01-24T21:14:56.681Z,11.20
2018-01-24T21:17:24.280Z,11.20
2018-01-24T21:19:51.886Z,11.20
2018-01-24T21:22:21.092Z,11.20
2018-01-24T21:24:50.410Z,11.10
2018-01-24T21:27:19.974Z,11.10
2018-01-24T21:30:00.725Z,11.10
2018-01-24T21:32:41.214Z,11.10
2018-01-24T21:35:33.044Z,11.10
2018-01-24T21:38:02.277Z,11.00
2018-01-24T21:40:31.658Z,11.00
2018-01-24T21:43:01.434Z,11.00
2018-01-24T21:45:31.031Z,11.00
2018-01-24T21:48:00.344Z,11.00
2018-01-24T21:50:29.711Z,10.90
2018-01-24T21:52:59.994Z,10.90
2018-01-24T21:55:30.167Z,10.90
2018-01-24T21:57:59.457Z,10.90
2018-01-24T22:00:28.988Z,10.90
2018-01-24T22:02:58.596Z,10.80
2018-01-24T22:05:28.175Z,10.80
2018-01-24T22:07:57.767Z,10.70
2018-01-24T22:10:25.332Z,10.60
2018-01-24T22:12:52.951Z,10.50
2018-01-24T22:15:20.549Z,10.40
2018-01-24T22:17:48.194Z,10.40
2018-01-24T22:20:16.570Z,10.30
2018-01-24T22:22:44.172Z,10.30
2018-01-24T22:25:11.781Z,10.30
2018-01-24T22:27:40.161Z,10.20
2018-01-24T22:30:08.546Z,10.20
2018-01-24T22:32:36.877Z,10.20
2018-01-24T22:35:04.465Z,10.20
2018-01-24T22:37:32.062Z,10.20
2018-01-24T22:39:59.661Z,10.20
2018-01-24T22:42:27.289Z,10.10
2018-01-24T22:44:54.870Z,10.10
2018-01-24T22:47:22.438Z,10.10
2018-01-24T22:49:50.070Z,10.00
2018-01-24T22:52:17.685Z,10.00
2018-01-24T22:54:45.289Z,10.00
2018-01-24T22:57:12.875Z,10.00
2018-01-24T22:59:40.453Z,10.00
2018-01-24T23:02:08.054Z,9.90
2018-01-24T23:04:36.460Z,9.80
2018-01-24T23:07:04.052Z,9.80
2018-01-24T23:09:31.616Z,9.80
2018-01-24T23:11:59.232Z,9.70
2018-01-24T23:14:27.553Z,9.50
2018-01-24T23:16:55.245Z,9.50
2018-01-24T23:19:22.823Z,9.50
2018-01-24T23:21:50.390Z,9.50
2018-01-24T23:24:17.999Z,9.50
2018-01-24T23:26:45.570Z,9.40
2018-01-24T23:29:13.131Z,9.40
2018-01-24T23:31:40.727Z,9.40
2018-01-24T23:34:09.117Z,9.40
2018-01-24T23:36:36.732Z,9.40
2018-01-24T23:39:04.286Z,9.40
2018-01-24T23:41:31.899Z,9.30
2018-01-24T23:44:00.217Z,9.20
2018-01-24T23:46:27.833Z,9.20
2018-01-24T23:48:56.157Z,9.10
2018-01-24T23:51:23.717Z,9.10
2018-01-24T23:53:51.322Z,9.00
2018-01-24T23:56:18.892Z,9.00
2018-01-24T23:58:47.248Z,8.90
